Darstellungsparameter: Aktuell verwendete Einstellungen:
Skalierung der Graphiken ... ?
xyx+y,   Skalierungsfaktor:      Skalierung: Modus: x, Faktor: 1
Darstellungszeitraum ... ?
Vom - - bis: - -   Zeitraum: 11.05.2010 - 12.05.2010
Min/Max/Avg-Anzeige ... ?
Zeige MMA aktuell
Zeige MMA Monat
Zeige MMA alles
Zeige --A aktuell
Zeige --A Monat
Zeige --A alles
Keine MMA-Anzeige
MMA:
Average (ber die Originaldaten)
MMA-Basis: 11.04.2020 - 13.05.2020
Quicknavigation für Darstellung... ?
Tage:      1T, 2T, 3T, 5T -1T -2T -3T -5T +1T +2T +3T +5T
Wochen: 1W, 2W, 3W -1W -2W -3W +1W +2W +3W
Monate: 1M, 3M, 6M -1M -3M -6M +1M +3M +6M
Jahre:    1J, 3J, 5J, 10J -1J -3J -5J -10J +1J +3J +5J +10J
Nutze für die Darstellung ... ?
Originaldaten oder Mittelwerte auf ...
Stundenbasis Tagesbasis Wochenbasis
Monatsbasis Jahresbasis      Datenbasis: Original-Daten
Darstellen als:
Statistik (Auto) Statistik J:M      Darstellung:
Zur Graphik,    zurück zur Übersicht aller Sensoren.
 
Tabellarische Datenbersicht: ?
 
Sensor: Nr:Datum:Temp:Abs-Feuchte:Windchill:Wind:
Aussen-T/F 1 11-05-2010 00:03:05 11 C 5.71 g/m*3 11 C 0 km/h
2 11-05-2010 00:15:05 11.1 C 5.74 g/m*3 11.1 C 0 km/h
3 11-05-2010 00:27:05 10.7 C 5.7 g/m*3 10.7 C 0 km/h
4 11-05-2010 00:39:05 10.8 C 5.83 g/m*3 10.8 C 0 km/h
5 11-05-2010 00:51:05 10.8 C 5.83 g/m*3 10.8 C 0 km/h
6 11-05-2010 01:03:05 10.4 C 5.88 g/m*3 10.4 C 0 km/h
7 11-05-2010 01:15:05 10.5 C 5.82 g/m*3 10.5 C 0 km/h
8 11-05-2010 01:27:05 10.5 C 5.92 g/m*3 10.5 C 0 km/h
9 11-05-2010 01:39:05 10.4 C 5.98 g/m*3 10.4 C 0 km/h
10 11-05-2010 01:51:05 10.3 C 6.03 g/m*3 10.3 C 0 km/h
11 11-05-2010 02:03:05 10.1 C 5.96 g/m*3 10.1 C 0 km/h
12 11-05-2010 02:15:05 10 C 6.01 g/m*3 10 C 0 km/h
13 11-05-2010 02:27:05 10.1 C 6.05 g/m*3 10.1 C 0 km/h
14 11-05-2010 02:39:05 10.1 C 6.05 g/m*3 10.1 C 0 km/h
15 11-05-2010 02:51:05 10.2 C 6.09 g/m*3 10.2 C 0 km/h
16 11-05-2010 03:03:05 10 C 6.11 g/m*3 10 C 0 km/h
17 11-05-2010 03:15:05 9.7 C 5.99 g/m*3 9.7 C 0 km/h
18 11-05-2010 03:27:05 9.9 C 6.07 g/m*3 9.9 C 0 km/h
19 11-05-2010 03:39:06 9.7 C 6.27 g/m*3 9.7 C 0 km/h
20 11-05-2010 03:51:06 9.6 C 6.32 g/m*3 9.6 C 0 km/h
21 11-05-2010 04:03:06 9.7 C 6.45 g/m*3 9.7 C 0 km/h
22 11-05-2010 04:15:06 9.5 C 6.1 g/m*3 9.5 C 0 km/h
23 11-05-2010 04:27:06 9.4 C 6.06 g/m*3 9.4 C 0 km/h
24 11-05-2010 04:39:06 9.3 C 6.02 g/m*3 9.3 C 0 km/h
25 11-05-2010 04:51:06 9.4 C 6.15 g/m*3 9.4 C 0 km/h
Sensor: Nr:Datum:Temp:Abs-Feuchte:Windchill:Wind:
Aussen-T/F 26 11-05-2010 05:03:06 9.4 C 6.15 g/m*3 9.4 C 0 km/h
27 11-05-2010 05:15:06 9.3 C 6.11 g/m*3 9.3 C 0 km/h
28 11-05-2010 05:27:06 9.5 C 6.19 g/m*3 9.5 C 0 km/h
29 11-05-2010 05:39:06 9.4 C 6.15 g/m*3 9.4 C 0 km/h
30 11-05-2010 05:51:06 9.3 C 6.2 g/m*3 9.3 C 0 km/h
31 11-05-2010 06:03:06 9.4 C 6.24 g/m*3 9.4 C 0 km/h
32 11-05-2010 06:15:06 9.3 C 6.11 g/m*3 9.3 C 0 km/h
33 11-05-2010 06:27:06 9.3 C 6.2 g/m*3 9.3 C 0 km/h
34 11-05-2010 06:39:06 9.1 C 6.12 g/m*3 9.1 C 0 km/h
35 11-05-2010 06:51:02 9.1 C 6.12 g/m*3 9.1 C 0 km/h
36 11-05-2010 07:03:01 9.3 C 6.29 g/m*3 9.3 C 0 km/h
37 11-05-2010 07:15:02 9.5 C 6.37 g/m*3 9.5 C 0 km/h
38 11-05-2010 07:27:02 9.6 C 6.32 g/m*3 9.6 C 0 km/h
39 11-05-2010 07:39:02 9.7 C 6.27 g/m*3 9.7 C 0 km/h
40 11-05-2010 07:51:01 9.9 C 6.35 g/m*3 9.9 C 0 km/h
41 11-05-2010 08:03:02 10.1 C 6.24 g/m*3 10.1 C 0 km/h
42 11-05-2010 08:15:01 10.5 C 6.3 g/m*3 10.5 C 0 km/h
43 11-05-2010 08:27:01 10.7 C 6.19 g/m*3 10.7 C 0 km/h
44 11-05-2010 08:39:01 11.2 C 6.28 g/m*3 11.2 C 0 km/h
45 11-05-2010 08:51:01 12 C 6.29 g/m*3 12 C 0 km/h
46 11-05-2010 09:03:02 11.7 C 6.07 g/m*3 11.7 C 0 km/h
47 11-05-2010 09:15:01 11.7 C 6.07 g/m*3 11.7 C 0 km/h
48 11-05-2010 09:27:01 11.9 C 6.14 g/m*3 11.9 C 0 km/h
49 11-05-2010 09:39:02 12.8 C 6.05 g/m*3 12.8 C 0 km/h
50 11-05-2010 09:51:01 12.7 C 5.79 g/m*3 12.7 C 0 km/h
Sensor: Nr:Datum:Temp:Abs-Feuchte:Windchill:Wind:
Aussen-T/F 51 11-05-2010 10:03:02 12.8 C 6.16 g/m*3 12.8 C 0 km/h
52 11-05-2010 10:15:02 13 C 6.01 g/m*3 13 C 0 km/h
53 11-05-2010 10:27:02 13 C 5.9 g/m*3 13 C 0 km/h
54 11-05-2010 10:39:01 12.3 C 5.97 g/m*3 12.3 C 0 km/h
55 11-05-2010 10:51:01 11.8 C 6.21 g/m*3 11.8 C 0 km/h
56 11-05-2010 11:03:01 12 C 6.07 g/m*3 12 C 0 km/h
57 11-05-2010 11:15:02 12 C 6.07 g/m*3 12 C 0 km/h
58 11-05-2010 11:27:02 12 C 6.18 g/m*3 12 C 0 km/h
59 11-05-2010 11:39:02 12.5 C 6.38 g/m*3 12.5 C 0 km/h
60 11-05-2010 11:51:02 14.1 C 6.19 g/m*3 14.1 C 0 km/h
61 11-05-2010 12:03:02 14.1 C 5.95 g/m*3 14.1 C 0 km/h
62 11-05-2010 12:15:02 13.7 C 6.28 g/m*3 13.7 C 0 km/h
63 11-05-2010 12:27:02 14.8 C 6.33 g/m*3 14.8 C 0 km/h
64 11-05-2010 12:39:01 14.1 C 5.95 g/m*3 14.1 C 0 km/h
65 11-05-2010 12:51:02 14.3 C 6.27 g/m*3 14.3 C 0 km/h
66 11-05-2010 13:03:01 13.4 C 6.16 g/m*3 13.4 C 0 km/h
67 11-05-2010 13:15:01 13.7 C 6.39 g/m*3 13.7 C 0 km/h
68 11-05-2010 13:27:01 14.2 C 6.23 g/m*3 14.2 C 0 km/h
69 11-05-2010 13:39:01 14.1 C 6.19 g/m*3 14.1 C 0 km/h
70 11-05-2010 13:51:02 13.3 C 6.35 g/m*3 13.3 C 0 km/h
71 11-05-2010 14:03:01 14.1 C 6.43 g/m*3 14.1 C 0 km/h
72 11-05-2010 14:15:01 14 C 6.27 g/m*3 14 C 0 km/h
73 11-05-2010 14:27:01 14.1 C 6.43 g/m*3 14.1 C 0 km/h
74 11-05-2010 14:39:02 14 C 6.39 g/m*3 14 C 0 km/h
75 11-05-2010 14:51:02 14 C 6.51 g/m*3 14 C 0 km/h
Sensor: Nr:Datum:Temp:Abs-Feuchte:Windchill:Wind:
Aussen-T/F 76 11-05-2010 15:03:02 14.4 C 6.55 g/m*3 14.4 C 0 km/h
77 11-05-2010 15:15:02 14.1 C 6.31 g/m*3 14.1 C 0 km/h
78 11-05-2010 15:27:02 14.7 C 6.55 g/m*3 14.7 C 0 km/h
79 11-05-2010 15:39:02 14.5 C 6.34 g/m*3 14.5 C 0 km/h
80 11-05-2010 15:51:02 14.3 C 6.39 g/m*3 14.3 C 0 km/h
81 11-05-2010 16:03:03 14.3 C 6.51 g/m*3 14.3 C 0 km/h
82 11-05-2010 16:15:02 14.8 C 6.71 g/m*3 14.8 C 0 km/h
83 11-05-2010 16:27:02 15.6 C 6.65 g/m*3 15.6 C 0 km/h
84 11-05-2010 16:39:03 15.9 C 6.5 g/m*3 15.9 C 0 km/h
85 11-05-2010 16:51:01 15.6 C 6.52 g/m*3 15.6 C 0 km/h
86 11-05-2010 17:03:02 14.9 C 6.75 g/m*3 14.9 C 0 km/h
87 11-05-2010 17:15:01 15.1 C 6.58 g/m*3 15.1 C 0 km/h
88 11-05-2010 17:27:01 14.7 C 6.8 g/m*3 14.7 C 0 km/h
89 11-05-2010 17:39:02 14.8 C 6.71 g/m*3 14.8 C 0 km/h
90 11-05-2010 17:51:01 14.7 C 6.8 g/m*3 14.7 C 0 km/h
91 11-05-2010 18:03:02 14.5 C 6.96 g/m*3 14.5 C 0 km/h
92 11-05-2010 18:15:02 13.9 C 7.07 g/m*3 13.9 C 0 km/h
93 11-05-2010 18:27:02 12.5 C 7.48 g/m*3 12.5 C 0 km/h
94 11-05-2010 18:39:02 11.9 C 8.05 g/m*3 11.9 C 0 km/h
95 11-05-2010 18:51:01 11.6 C 8.21 g/m*3 11.6 C 0 km/h
96 11-05-2010 19:03:02 11.3 C 8.16 g/m*3 11.3 C 0 km/h
97 11-05-2010 19:15:02 11.1 C 8.36 g/m*3 11.1 C 0 km/h
98 11-05-2010 19:27:02 10.9 C 8.36 g/m*3 10.9 C 0 km/h
99 11-05-2010 19:39:02 10.8 C 8.3 g/m*3 10.8 C 0 km/h
100 11-05-2010 19:51:01 10.6 C 8.39 g/m*3 10.6 C 0 km/h
Sensor: Nr:Datum:Temp:Abs-Feuchte:Windchill:Wind:
Aussen-T/F 101 11-05-2010 20:03:02 10.5 C 8.44 g/m*3 10.5 C 0 km/h
102 11-05-2010 20:15:02 10.2 C 8.37 g/m*3 10.2 C 0 km/h
103 11-05-2010 20:27:02 10.1 C 8.42 g/m*3 10.1 C 0 km/h
104 11-05-2010 20:39:02 10 C 8.46 g/m*3 10 C 0 km/h
105 11-05-2010 20:51:02 9.8 C 8.54 g/m*3 9.8 C 0 km/h
106 11-05-2010 21:03:01 9.8 C 8.54 g/m*3 9.8 C 0 km/h
107 11-05-2010 21:15:02 9.9 C 8.59 g/m*3 9.9 C 0 km/h
108 11-05-2010 21:27:03 10 C 8.64 g/m*3 10 C 0 km/h
109 11-05-2010 21:39:01 9.8 C 8.63 g/m*3 9.8 C 0 km/h
110 11-05-2010 21:51:02 9.8 C 8.63 g/m*3 9.8 C 0 km/h
111 11-05-2010 22:03:02 9.7 C 8.57 g/m*3 9.7 C 0 km/h
112 11-05-2010 22:15:01 9.6 C 8.52 g/m*3 9.6 C 0 km/h
113 11-05-2010 22:27:01 9.8 C 8.72 g/m*3 9.8 C 0 km/h
114 11-05-2010 22:40:03 9.6 C 8.61 g/m*3 9.6 C 0 km/h
115 11-05-2010 22:52:03 9.7 C 8.67 g/m*3 9.7 C 0 km/h
116 11-05-2010 23:04:03 9.8 C 8.72 g/m*3 9.8 C 0 km/h
117 11-05-2010 23:16:03 9.8 C 8.72 g/m*3 9.8 C 0 km/h
118 11-05-2010 23:28:03 9.8 C 8.72 g/m*3 9.8 C 0 km/h
119 11-05-2010 23:40:03 9.9 C 8.78 g/m*3 9.9 C 0 km/h
120 11-05-2010 23:52:03 9.7 C 8.67 g/m*3 9.7 C 0 km/h
121 12-05-2010 00:04:03 9.7 C 8.67 g/m*3 9.7 C 0 km/h
122 12-05-2010 00:16:03 9.6 C 8.61 g/m*3 9.6 C 0 km/h
123 12-05-2010 00:28:03 9.1 C 8.34 g/m*3 9.1 C 0 km/h
124 12-05-2010 00:40:03 9.1 C 8.34 g/m*3 9.1 C 0 km/h
125 12-05-2010 00:52:03 9.1 C 8.34 g/m*3 9.1 C 0 km/h
Sensor: Nr:Datum:Temp:Abs-Feuchte:Windchill:Wind:
Aussen-T/F 126 12-05-2010 01:04:03 9.1 C 8.34 g/m*3 9.1 C 0 km/h
127 12-05-2010 01:16:03 8.8 C 8.27 g/m*3 8.8 C 0 km/h
128 12-05-2010 01:28:04 8.5 C 8.03 g/m*3 8.5 C 0 km/h
129 12-05-2010 01:40:04 8.4 C 7.97 g/m*3 8.4 C 0 km/h
130 12-05-2010 01:52:04 7.8 C 7.75 g/m*3 7.8 C 0 km/h
131 12-05-2010 02:04:04 7.5 C 7.52 g/m*3 7.5 C 0 km/h
132 12-05-2010 02:16:04 7.8 C 7.75 g/m*3 7.8 C 0 km/h
133 12-05-2010 02:28:04 7.9 C 7.8 g/m*3 7.9 C 0 km/h
134 12-05-2010 02:40:04 7.9 C 7.8 g/m*3 7.9 C 0 km/h
135 12-05-2010 02:52:04 7.5 C 7.6 g/m*3 7.5 C 0 km/h
136 12-05-2010 03:04:04 7.3 C 7.43 g/m*3 7.3 C 0 km/h
137 12-05-2010 03:16:04 7.2 C 7.38 g/m*3 7.2 C 0 km/h
138 12-05-2010 03:28:04 7.1 C 7.33 g/m*3 7.1 C 0 km/h
139 12-05-2010 03:40:04 7 C 7.28 g/m*3 7 C 0 km/h
140 12-05-2010 03:52:04 7 C 7.21 g/m*3 7 C 0 km/h
141 12-05-2010 04:04:04 6.9 C 7.16 g/m*3 6.9 C 0 km/h
142 12-05-2010 04:16:04 6.9 C 7.08 g/m*3 6.9 C 0 km/h
143 12-05-2010 04:28:04 6.9 C 7.01 g/m*3 6.9 C 0 km/h
144 12-05-2010 04:40:04 6.9 C 6.93 g/m*3 6.9 C 0 km/h
145 12-05-2010 04:52:04 6.8 C 6.81 g/m*3 6.8 C 0 km/h
146 12-05-2010 05:04:04 6.8 C 6.73 g/m*3 6.8 C 0 km/h
147 12-05-2010 05:16:04 6.8 C 6.65 g/m*3 6.8 C 0 km/h
148 12-05-2010 05:28:04 6.8 C 6.65 g/m*3 6.8 C 0 km/h
149 12-05-2010 05:40:05 6.8 C 6.65 g/m*3 6.8 C 0 km/h
150 12-05-2010 05:52:05 6.8 C 6.65 g/m*3 6.8 C 0 km/h
Sensor: Nr:Datum:Temp:Abs-Feuchte:Windchill:Wind:
Aussen-T/F 151 12-05-2010 06:04:05 6.7 C 6.61 g/m*3 6.7 C 0 km/h
152 12-05-2010 06:16:05 6.8 C 6.58 g/m*3 6.8 C 0 km/h
153 12-05-2010 06:28:05 6.8 C 6.5 g/m*3 6.8 C 0 km/h
154 12-05-2010 06:40:05 6.8 C 6.58 g/m*3 6.8 C 0 km/h
155 12-05-2010 06:52:05 6.8 C 6.58 g/m*3 6.8 C 0 km/h
156 12-05-2010 07:04:03 6.9 C 6.54 g/m*3 6.9 C 0 km/h
157 12-05-2010 07:16:03 7 C 6.59 g/m*3 7 C 0 km/h
158 12-05-2010 07:28:03 7.1 C 6.71 g/m*3 7.1 C 0 km/h
159 12-05-2010 07:40:03 7.2 C 6.67 g/m*3 7.2 C 0 km/h
160 12-05-2010 07:52:02 7.2 C 6.59 g/m*3 7.2 C 0 km/h
161 12-05-2010 08:04:02 7.3 C 6.56 g/m*3 7.3 C 0 km/h
162 12-05-2010 08:16:02 7.6 C 6.69 g/m*3 7.6 C 0 km/h
163 12-05-2010 08:28:02 7.7 C 6.57 g/m*3 7.7 C 0 km/h
164 12-05-2010 08:40:02 7.8 C 6.45 g/m*3 7.8 C 0 km/h
165 12-05-2010 08:52:01 7.8 C 6.45 g/m*3 7.8 C 0 km/h
166 12-05-2010 09:04:02 8 C 6.37 g/m*3 8 C 0 km/h
167 12-05-2010 09:16:01 8.3 C 6.41 g/m*3 8.3 C 0 km/h
168 12-05-2010 09:28:01 8.4 C 6.19 g/m*3 8.4 C 0 km/h
169 12-05-2010 09:40:01 8.3 C 6.07 g/m*3 8.3 C 0 km/h
170 12-05-2010 09:52:01 8.4 C 6.11 g/m*3 8.4 C 0 km/h
171 12-05-2010 10:04:02 8.4 C 6.02 g/m*3 8.4 C 0 km/h
172 12-05-2010 10:16:01 8.6 C 6.1 g/m*3 8.6 C 0 km/h
173 12-05-2010 10:28:01 8.6 C 6.02 g/m*3 8.6 C 0 km/h
174 12-05-2010 10:40:01 8.7 C 5.97 g/m*3 8.7 C 0 km/h
175 12-05-2010 10:52:01 8.7 C 5.79 g/m*3 8.7 C 0 km/h
Sensor: Nr:Datum:Temp:Abs-Feuchte:Windchill:Wind:
Aussen-T/F 176 12-05-2010 11:04:01 8.7 C 5.79 g/m*3 8.7 C 0 km/h
177 12-05-2010 11:16:02 8.9 C 5.87 g/m*3 8.9 C 0 km/h
178 12-05-2010 11:28:02 8.9 C 5.61 g/m*3 8.9 C 0 km/h
179 12-05-2010 11:40:01 9.3 C 5.57 g/m*3 9.3 C 0 km/h
180 12-05-2010 11:52:01 10.1 C 5.67 g/m*3 10.1 C 0 km/h
181 12-05-2010 12:04:01 10 C 5.54 g/m*3 10 C 0 km/h
182 12-05-2010 12:16:02 9.7 C 5.35 g/m*3 9.7 C 0 km/h
183 12-05-2010 12:28:02 9.9 C 5.51 g/m*3 9.9 C 0 km/h
184 12-05-2010 12:40:01 10.5 C 5.33 g/m*3 10.5 C 0 km/h
185 12-05-2010 12:52:03 10.2 C 5.42 g/m*3 10.2 C 0 km/h
186 12-05-2010 13:04:02 10.5 C 5.43 g/m*3 10.5 C 0 km/h
187 12-05-2010 13:16:02 11.1 C 5.34 g/m*3 11.1 C 0 km/h
188 12-05-2010 13:28:02 10.7 C 5.3 g/m*3 10.7 C 0 km/h
189 12-05-2010 13:40:02 10.4 C 5.2 g/m*3 10.4 C 0 km/h
190 12-05-2010 13:52:02 10.7 C 5.21 g/m*3 10.7 C 0 km/h
191 12-05-2010 14:04:02 10.2 C 5.23 g/m*3 10.2 C 0 km/h
192 12-05-2010 14:16:02 10.2 C 5.23 g/m*3 10.2 C 0 km/h
193 12-05-2010 14:28:02 10.6 C 5.17 g/m*3 10.6 C 0 km/h
194 12-05-2010 14:40:01 10.9 C 5.17 g/m*3 10.9 C 0 km/h
195 12-05-2010 14:52:02 10.7 C 4.81 g/m*3 10.7 C 0 km/h
196 12-05-2010 15:04:01 11.1 C 5.14 g/m*3 11.1 C 0 km/h
197 12-05-2010 15:16:02 10.8 C 4.94 g/m*3 10.8 C 0 km/h
198 12-05-2010 15:28:02 10.8 C 4.84 g/m*3 10.8 C 0 km/h
199 12-05-2010 15:40:02 10.8 C 5.04 g/m*3 10.8 C 0 km/h
200 12-05-2010 15:52:02 10.7 C 5.11 g/m*3 10.7 C 0 km/h
Sensor: Nr:Datum:Temp:Abs-Feuchte:Windchill:Wind:
Aussen-T/F 201 12-05-2010 16:04:02 10.8 C 5.24 g/m*3 10.8 C 0 km/h
202 12-05-2010 16:16:02 10.9 C 5.17 g/m*3 10.9 C 0 km/h
203 12-05-2010 16:28:02 10.7 C 5.3 g/m*3 10.7 C 0 km/h
204 12-05-2010 16:40:02 10.3 C 5.17 g/m*3 10.3 C 0 km/h
205 12-05-2010 16:52:01 9.9 C 5.32 g/m*3 9.9 C 0 km/h
206 12-05-2010 17:04:02 9.6 C 5.22 g/m*3 9.6 C 0 km/h
207 12-05-2010 17:16:01 9.7 C 5.35 g/m*3 9.7 C 0 km/h
208 12-05-2010 17:28:01 9.9 C 5.32 g/m*3 9.9 C 0 km/h
209 12-05-2010 17:40:02 9.9 C 5.32 g/m*3 9.9 C 0 km/h
210 12-05-2010 17:52:02 9.6 C 5.22 g/m*3 9.6 C 0 km/h
211 12-05-2010 18:04:02 9.6 C 5.4 g/m*3 9.6 C 0 km/h
212 12-05-2010 18:16:01 9.3 C 5.39 g/m*3 9.3 C 0 km/h
213 12-05-2010 18:28:01 9.1 C 5.41 g/m*3 9.1 C 0 km/h
214 12-05-2010 18:40:02 9.1 C 5.5 g/m*3 9.1 C 0 km/h
215 12-05-2010 18:52:02 9 C 5.55 g/m*3 9 C 0 km/h
216 12-05-2010 19:04:02 9 C 5.64 g/m*3 9 C 0 km/h
217 12-05-2010 19:16:01 8.8 C 5.66 g/m*3 8.8 C 0 km/h
218 12-05-2010 19:28:01 9 C 5.73 g/m*3 9 C 0 km/h
219 12-05-2010 19:40:02 9 C 5.73 g/m*3 9 C 0 km/h
220 12-05-2010 19:52:02 8.7 C 5.71 g/m*3 8.7 C 0 km/h
221 12-05-2010 20:04:02 8.6 C 5.76 g/m*3 8.6 C 0 km/h
222 12-05-2010 20:16:02 8.6 C 5.84 g/m*3 8.6 C 0 km/h
223 12-05-2010 20:28:02 8.6 C 5.84 g/m*3 8.6 C 0 km/h
224 12-05-2010 20:40:02 8.5 C 5.81 g/m*3 8.5 C 0 km/h
225 12-05-2010 20:52:02 8.5 C 5.98 g/m*3 8.5 C 0 km/h
Sensor: Nr:Datum:Temp:Abs-Feuchte:Windchill:Wind:
Aussen-T/F 226 12-05-2010 21:04:02 8.5 C 5.89 g/m*3 8.5 C 0 km/h
227 12-05-2010 21:16:02 8.4 C 5.94 g/m*3 8.4 C 0 km/h
228 12-05-2010 21:28:02 8.5 C 6.06 g/m*3 8.5 C 0 km/h
229 12-05-2010 21:40:01 8.5 C 6.06 g/m*3 8.5 C 0 km/h
230 12-05-2010 21:52:02 8.3 C 6.07 g/m*3 8.3 C 0 km/h
231 12-05-2010 22:04:01 8 C 6.2 g/m*3 8 C 0 km/h
232 12-05-2010 22:17:03 8 C 6.37 g/m*3 8 C 0 km/h
233 12-05-2010 22:29:03 7.6 C 6.36 g/m*3 7.6 C 0 km/h
234 12-05-2010 22:41:03 7.5 C 6.48 g/m*3 7.5 C 0 km/h
235 12-05-2010 22:53:03 7.7 C 6.65 g/m*3 7.7 C 0 km/h
236 12-05-2010 23:05:03 7.8 C 6.69 g/m*3 7.8 C 0 km/h
237 12-05-2010 23:17:03 7.8 C 6.69 g/m*3 7.8 C 0 km/h
238 12-05-2010 23:29:03 7.8 C 6.69 g/m*3 7.8 C 0 km/h
239 12-05-2010 23:41:04 7.9 C 6.74 g/m*3 7.9 C 0 km/h
240 12-05-2010 23:53:04 7.7 C 6.57 g/m*3 7.7 C 0 km/h

Legende:
   Min
   Max


Maximal/Minimal-Werte vom 11.04.2020 - 13.05.2020

Sensor Min Max Avg
Temp
(Aussen-T/F)
-0.1 °C
15-04-2020  06:55:00
26.2 °C
17-04-2020  18:05:00
12.26 °C

Die Daten stammen von einer Davis Vantage Pro 2 Wetter-Station und werden unter Linux mit der Software wview2wettercgi und aufbereitet. Alle Angaben erfolgen ohne Gewähr für ihre Vollständigkeit oder Richtigkeit.
Kontakt: Rainer Krienke krienke@uni-koblenz.de . Meine Webseiten an der Uni Koblenz oder privat.
Version: $Revision: 0.78 $